createdAt,value
2022-08-05T00:25:27.721Z,18.85
2022-08-05T01:25:40.275Z,18.81
2022-08-05T01:45:27.604Z,18.79
2022-08-05T02:05:28.483Z,18.78
2022-08-05T02:25:27.544Z,18.77
2022-08-05T02:45:28.486Z,18.77
2022-08-05T03:06:52.777Z,18.77
2022-08-05T03:25:34.193Z,18.76
2022-08-05T03:45:27.447Z,18.74
2022-08-05T04:05:27.906Z,18.71
2022-08-05T04:25:38.584Z,18.68
2022-08-05T04:45:31.416Z,18.67
2022-08-05T05:05:29.031Z,18.67
2022-08-05T05:25:32.863Z,18.67
2022-08-05T05:45:27.250Z,18.66
2022-08-05T06:05:27.201Z,18.63
2022-08-05T06:25:59.971Z,18.6
2022-08-05T06:45:44.280Z,18.58
2022-08-05T07:05:37.086Z,18.57
2022-08-05T07:25:55.804Z,18.57
2022-08-05T07:45:31.218Z,18.56
2022-08-05T08:05:27.102Z,18.53
2022-08-05T08:25:36.031Z,18.51
2022-08-05T08:45:29.550Z,18.48
2022-08-05T09:05:38.007Z,18.47
2022-08-05T09:26:00.737Z,18.47
2022-08-05T10:05:26.985Z,18.46
2022-08-05T10:25:26.865Z,18.45
2022-08-05T10:45:40.577Z,18.43
2022-08-05T11:05:29.208Z,18.4
2022-08-05T11:26:03.939Z,18.38
2022-08-05T12:05:29.021Z,18.37
2022-08-05T12:25:28.489Z,18.36
2022-08-05T12:45:42.807Z,18.36
2022-08-05T13:05:26.612Z,18.36
2022-08-05T13:25:51.324Z,18.36
2022-08-05T13:45:30.972Z,18.36
2022-08-05T14:05:29.620Z,18.36
2022-08-05T14:25:27.883Z,18.36
2022-08-05T14:45:26.491Z,18.36
2022-08-05T15:05:29.710Z,18.36
2022-08-05T15:25:41.574Z,18.37
2022-08-05T15:45:38.075Z,18.37
2022-08-05T16:05:28.316Z,18.37
2022-08-05T16:25:26.852Z,18.38
2022-08-05T17:25:34.250Z,18.41
2022-08-05T18:05:27.882Z,18.42
2022-08-05T18:25:25.458Z,18.43
2022-08-05T18:45:26.063Z,18.44
2022-08-05T19:06:06.896Z,18.44
2022-08-05T19:25:29.795Z,18.44
2022-08-05T19:45:25.972Z,18.44
2022-08-05T20:05:25.951Z,18.44
2022-08-05T20:25:25.924Z,18.43
2022-08-05T20:45:55.741Z,18.42
2022-08-05T21:05:25.897Z,18.4
2022-08-05T21:25:25.855Z,18.38
2022-08-05T21:45:38.261Z,18.37
2022-08-05T22:25:27.611Z,18.36
2022-08-05T22:45:25.769Z,18.33
2022-08-05T23:45:25.707Z,18.26
